Time;durP1;ratioP1;P1;durP2;ratioP2;P2;SDS_P1;SDS_P2;PMS_P1;PMS_P2;Temp;Humidity;BMP_temperature;BMP_pressure;BME280_temperature;BME280_humidity;BME280_pressure;Samples;Min_cycle;Max_cycle;Signal;HPM_P1;HPM_P2
2023/10/12 00:01:59;;;;;;;1.50;1.40;;;20.50;70.90;;;;;;5091032;28;20089;-77
2023/10/12 00:04:28;;;;;;;1.73;1.63;;;20.50;71.80;;;;;;5078061;28;20493;-76
2023/10/12 00:06:55;;;;;;;1.30;1.20;;;20.50;71.20;;;;;;5089993;28;20040;-77
2023/10/12 00:09:25;;;;;;;1.70;1.60;;;20.50;71.00;;;;;;5088288;28;20580;-77
2023/10/12 00:11:57;;;;;;;1.58;1.48;;;20.50;71.20;;;;;;5070945;28;20033;-77
2023/10/12 00:14:32;;;;;;;2.40;1.60;;;20.50;71.30;;;;;;5070768;28;20032;-77
2023/10/12 00:16:58;;;;;;;1.30;1.30;;;20.50;71.50;;;;;;5068211;28;20075;-77
2023/10/12 00:19:23;;;;;;;1.42;1.42;;;20.50;71.50;;;;;;5065881;28;20045;-77
2023/10/12 00:21:50;;;;;;;1.88;1.77;;;20.50;71.50;;;;;;5067933;28;20044;-77
2023/10/12 00:24:18;;;;;;;1.52;1.40;;;20.50;71.60;;;;;;5065868;28;20053;-77
2023/10/12 00:26:44;;;;;;;1.52;1.42;;;20.50;71.40;;;;;;5067627;28;20040;-77
2023/10/12 00:29:10;;;;;;;1.20;1.20;;;20.50;71.30;;;;;;5048782;28;20509;-77
2023/10/12 00:31:38;;;;;;;1.27;1.27;;;20.50;71.40;;;;;;5068814;28;20090;-77
2023/10/12 00:34:04;;;;;;;1.98;1.88;;;20.50;71.50;;;;;;5066533;28;20036;-77
2023/10/12 00:36:33;;;;;;;1.20;1.10;;;20.50;71.40;;;;;;5067006;28;20040;-77
2023/10/12 00:39:00;;;;;;;1.42;1.33;;;20.50;71.60;;;;;;5069473;28;20052;-77
2023/10/12 00:41:25;;;;;;;1.65;1.55;;;20.40;71.40;;;;;;5065075;28;20151;-77
2023/10/12 00:44:06;;;;;;;1.45;1.45;;;20.40;71.10;;;;;;5068991;28;20672;-77
2023/10/12 00:46:40;;;;;;;1.52;1.42;;;20.50;70.90;;;;;;5065577;28;20828;-77
2023/10/12 00:49:19;;;;;;;1.60;1.50;;;20.50;70.90;;;;;;5065498;28;20514;-77
2023/10/12 00:51:52;;;;;;;1.38;1.27;;;20.50;71.10;;;;;;5066427;28;20044;-77
2023/10/12 00:54:28;;;;;;;1.20;1.20;;;20.50;71.40;;;;;;5065866;28;20631;-77
2023/10/12 00:56:57;;;;;;;1.70;1.60;;;20.50;71.20;;;;;;5049570;28;20667;-77
2023/10/12 00:59:24;;;;;;;1.60;1.50;;;20.50;71.40;;;;;;5066724;28;20040;-77
2023/10/12 01:01:49;;;;;;;1.30;1.30;;;20.50;72.00;;;;;;5065738;28;20051;-77
2023/10/12 01:04:16;;;;;;;1.30;1.27;;;20.40;71.20;;;;;;5070406;28;20385;-77
2023/10/12 01:06:44;;;;;;;1.48;1.48;;;20.50;71.70;;;;;;5066057;28;20087;-77
2023/10/12 01:09:19;;;;;;;1.40;1.30;;;20.50;71.20;;;;;;5065424;28;20044;-77
2023/10/12 01:11:52;;;;;;;1.70;1.60;;;20.50;71.30;;;;;;5068209;28;20063;-77
2023/10/12 01:14:18;;;;;;;1.65;1.55;;;20.50;71.20;;;;;;5069528;28;20125;-77
2023/10/12 01:16:54;;;;;;;1.55;1.45;;;20.50;71.30;;;;;;5049919;28;20036;-77
2023/10/12 01:19:23;;;;;;;1.55;1.45;;;20.50;72.20;;;;;;5071267;28;20055;-77
2023/10/12 01:21:55;;;;;;;1.75;1.65;;;20.50;71.50;;;;;;5067652;28;20067;-77
2023/10/12 01:24:29;;;;;;;1.40;1.40;;;20.40;71.60;;;;;;5070142;28;20040;-74
2023/10/12 01:26:56;;;;;;;1.38;1.27;;;20.50;71.60;;;;;;5073552;28;20155;-74
2023/10/12 01:29:22;;;;;;;1.40;1.30;;;20.50;71.60;;;;;;5068902;28;20051;-74
2023/10/12 01:31:54;;;;;;;1.17;1.17;;;20.40;71.40;;;;;;5074718;28;20044;-74
2023/10/12 01:34:24;;;;;;;1.60;1.50;;;20.40;71.40;;;;;;5034712;28;20458;-74
2023/10/12 01:36:52;;;;;;;1.38;1.27;;;20.40;71.30;;;;;;5069665;28;20067;-74
2023/10/12 01:39:18;;;;;;;3.13;2.00;;;20.40;71.40;;;;;;5070866;28;20052;-74
2023/10/12 01:41:47;;;;;;;1.40;1.30;;;20.40;71.50;;;;;;5068725;28;20521;-77
2023/10/12 01:44:13;;;;;;;1.67;1.58;;;20.50;71.70;;;;;;5072582;28;20463;-77
2023/10/12 01:46:39;;;;;;;1.58;1.48;;;20.50;71.70;;;;;;5069241;28;20090;-77
2023/10/12 01:49:06;;;;;;;1.33;1.27;;;20.40;71.70;;;;;;5070130;28;20042;-77
2023/10/12 01:51:33;;;;;;;1.60;1.50;;;20.40;71.80;;;;;;5070061;28;20041;-77
2023/10/12 01:53:59;;;;;;;1.42;1.42;;;20.50;71.90;;;;;;5069713;28;20044;-77
2023/10/12 01:56:29;;;;;;;1.52;1.42;;;20.50;71.90;;;;;;5068952;28;20046;-77
2023/10/12 01:58:54;;;;;;;1.58;1.48;;;20.40;71.80;;;;;;5071829;28;20071;-77
2023/10/12 02:01:21;;;;;;;1.92;1.83;;;20.40;71.60;;;;;;5068415;28;20123;-77
2023/10/12 02:03:53;;;;;;;1.67;1.58;;;20.50;71.70;;;;;;5069646;28;20824;-77
2023/10/12 02:06:22;;;;;;;1.40;1.40;;;20.40;71.60;;;;;;5068755;28;20044;-77
2023/10/12 02:08:52;;;;;;;1.40;1.30;;;20.50;71.70;;;;;;5067697;28;20536;-77
2023/10/12 02:13:47;;;;;;;1.48;1.40;;;20.40;71.70;;;;;;5068169;28;20424;-77
2023/10/12 02:16:30;;;;;;;1.50;1.40;;;20.40;71.50;;;;;;5070490;28;20489;-77
2023/10/12 02:18:56;;;;;;;1.50;1.40;;;20.40;71.50;;;;;;5068803;28;20052;-77
2023/10/12 02:21:22;;;;;;;1.73;1.63;;;20.40;71.50;;;;;;5069018;28;20598;-77
2023/10/12 02:26:31;;;;;;;1.73;1.63;;;20.40;71.70;;;;;;5067552;28;20052;-77
2023/10/12 02:31:31;;;;;;;1.65;1.55;;;20.40;72.00;;;;;;5070724;28;20044;-77
2023/10/12 02:34:00;;;;;;;1.33;1.33;;;20.40;72.90;;;;;;5068601;28;20040;-77
2023/10/12 02:36:26;;;;;;;1.50;1.38;;;20.40;72.20;;;;;;5068073;28;20033;-77
2023/10/12 02:38:53;;;;;;;1.80;1.70;;;20.50;73.10;;;;;;5071056;28;20043;-77
2023/10/12 02:41:24;;;;;;;1.80;1.70;;;20.40;72.20;;;;;;5068838;28;20517;-77
2023/10/12 02:44:11;;;;;;;1.67;1.58;;;20.40;72.10;;;;;;5072184;28;20052;-77
2023/10/12 02:46:41;;;;;;;1.33;1.33;;;20.40;72.00;;;;;;5067600;28;20149;-77
2023/10/12 02:49:07;;;;;;;2.85;1.83;;;20.40;72.00;;;;;;5069069;28;20054;-77
2023/10/12 02:51:40;;;;;;;1.50;1.40;;;20.50;71.90;;;;;;5070497;28;20635;-77
2023/10/12 02:54:05;;;;;;;1.65;1.55;;;20.40;71.80;;;;;;5069858;28;20498;-77
2023/10/12 02:56:31;;;;;;;1.50;1.40;;;20.50;71.70;;;;;;5069331;28;20058;-77
2023/10/12 02:59:03;;;;;;;1.73;1.63;;;20.40;71.60;;;;;;5072189;28;20058;-77
2023/10/12 03:01:29;;;;;;;1.50;1.40;;;20.50;71.70;;;;;;5064981;28;20645;-77
2023/10/12 03:03:56;;;;;;;1.45;1.35;;;20.50;71.80;;;;;;5068509;28;20103;-77
2023/10/12 03:06:23;;;;;;;1.33;1.33;;;20.40;71.90;;;;;;5067142;28;20394;-77
2023/10/12 03:09:13;;;;;;;1.60;1.50;;;20.40;71.80;;;;;;5066866;28;20102;-77
2023/10/12 03:11:42;;;;;;;1.90;1.80;;;20.50;72.00;;;;;;5071658;28;20084;-77
2023/10/12 03:14:15;;;;;;;1.85;1.75;;;20.40;72.10;;;;;;5067994;28;20512;-77
2023/10/12 03:16:44;;;;;;;1.60;1.50;;;20.50;72.30;;;;;;5069358;28;20505;-77
2023/10/12 03:19:26;;;;;;;1.67;1.60;;;20.40;72.20;;;;;;5068478;28;20822;-77
2023/10/12 03:21:51;;;;;;;1.65;1.55;;;20.50;72.20;;;;;;5065381;28;20056;-77
2023/10/12 03:24:21;;;;;;;1.45;1.35;;;20.40;72.20;;;;;;5069502;28;20040;-77
2023/10/12 03:29:28;;;;;;;1.70;1.60;;;20.40;72.20;;;;;;5067621;28;20036;-77
2023/10/12 03:31:56;;;;;;;1.33;1.30;;;20.40;72.10;;;;;;5070699;28;20040;-77
2023/10/12 03:37:01;;;;;;;1.33;1.33;;;20.40;72.00;;;;;;5068241;28;20032;-76
2023/10/12 03:39:27;;;;;;;1.50;1.50;;;20.40;71.90;;;;;;5067608;28;20040;-77
2023/10/12 03:42:41;;;;;;;1.15;1.15;;;20.50;72.00;;;;;;5060330;28;20141;-77
2023/10/12 03:45:24;;;;;;;1.63;1.52;;;20.40;72.00;;;;;;5067565;28;20048;-77
2023/10/12 03:48:25;;;;;;;1.67;1.58;;;20.40;72.10;;;;;;5069239;28;20035;-77
2023/10/12 03:53:45;;;;;;;1.40;1.30;;;20.40;72.30;;;;;;5014281;28;20044;-77
2023/10/12 03:56:15;;;;;;;1.70;1.60;;;20.40;72.60;;;;;;5071216;28;20056;-77
2023/10/12 03:58:46;;;;;;;1.23;1.23;;;20.40;72.60;;;;;;5065986;28;20101;-77
2023/10/12 04:01:22;;;;;;;1.80;1.70;;;20.40;72.50;;;;;;5067674;28;20036;-77
2023/10/12 04:03:58;;;;;;;1.95;1.85;;;20.40;72.40;;;;;;5070048;28;20126;-77
2023/10/12 04:06:24;;;;;;;1.60;1.50;;;20.40;72.20;;;;;;5066143;28;20048;-77
2023/10/12 04:08:58;;;;;;;1.67;1.58;;;20.40;72.30;;;;;;5068286;28;24734;-77
2023/10/12 04:15:26;;;;;;;;;;;20.40;72.20;;;;;;5075915;28;20515;-77
2023/10/12 04:17:17;;;;;;;1.10;1.10;;;20.40;72.20;;;;;;5083810;28;20413;-77
2023/10/12 04:19:45;;;;;;;1.60;1.50;;;20.40;72.20;;;;;;5078006;28;20139;-76
2023/10/12 04:22:24;;;;;;;1.40;1.30;;;20.40;72.20;;;;;;5091856;28;20040;-77
2023/10/12 04:24:54;;;;;;;1.35;1.35;;;20.40;72.30;;;;;;5089696;28;20036;-77
2023/10/12 04:29:56;;;;;;;1.60;1.50;;;20.40;72.30;;;;;;5085704;28;20020;-77
2023/10/12 04:35:20;;;;;;;1.77;1.67;;;20.40;72.30;;;;;;5073690;28;20087;-77
2023/10/12 04:37:46;;;;;;;1.60;1.50;;;20.40;72.60;;;;;;5090117;28;20048;-77
2023/10/12 04:40:36;;;;;;;1.58;1.50;;;20.40;72.80;;;;;;5092211;28;20032;-77
2023/10/12 04:43:02;;;;;;;1.90;1.80;;;20.40;72.60;;;;;;5088074;28;20067;-77
2023/10/12 04:45:30;;;;;;;1.65;1.55;;;20.40;72.40;;;;;;5089281;28;20040;-77
2023/10/12 04:48:07;;;;;;;1.48;1.48;;;20.40;72.40;;;;;;5081220;28;20126;-77
2023/10/12 04:50:52;;;;;;;1.63;1.52;;;20.40;72.10;;;;;;5091539;28;20557;-77
2023/10/12 04:53:19;;;;;;;1.60;1.50;;;20.40;72.40;;;;;;5080450;28;20040;-77
2023/10/12 04:55:47;;;;;;;1.98;1.88;;;20.40;72.30;;;;;;5087502;28;20036;-77
2023/10/12 05:01:12;;;;;;;1.65;1.55;;;20.40;72.20;;;;;;5090552;28;20064;-72
2023/10/12 05:03:41;;;;;;;1.40;1.40;;;20.40;72.50;;;;;;5088259;28;20056;-72
2023/10/12 05:06:13;;;;;;;1.73;1.70;;;20.40;72.60;;;;;;5095341;28;20041;-72
2023/10/12 05:08:40;;;;;;;1.42;1.40;;;20.40;72.40;;;;;;5099212;28;20035;-72
2023/10/12 05:11:08;;;;;;;2.13;1.48;;;20.40;72.10;;;;;;5100189;28;20591;-71
2023/10/12 05:13:33;;;;;;;1.65;1.55;;;20.40;71.90;;;;;;5094811;28;20052;-72
2023/10/12 05:16:06;;;;;;;1.17;1.15;;;20.40;71.80;;;;;;5088816;28;20425;-72
2023/10/12 05:18:32;;;;;;;1.75;1.65;;;20.50;71.90;;;;;;5075462;28;20032;-72
2023/10/12 05:20:58;;;;;;;1.25;1.23;;;20.50;71.80;;;;;;5091810;28;20407;-72
2023/10/12 05:23:23;;;;;;;1.10;1.10;;;20.40;71.90;;;;;;5085703;28;20075;-72
2023/10/12 05:28:31;;;;;;;1.40;1.40;;;20.40;72.20;;;;;;5092458;28;20051;-72
2023/10/12 05:31:09;;;;;;;2.05;1.95;;;20.40;72.30;;;;;;5080868;28;20052;-73
2023/10/12 05:36:08;;;;;;;1.60;1.50;;;20.40;72.50;;;;;;5098666;28;20036;-73
2023/10/12 05:38:38;;;;;;;1.45;1.35;;;20.40;72.30;;;;;;5092355;28;20054;-73
2023/10/12 05:41:05;;;;;;;1.80;1.70;;;20.40;72.30;;;;;;5098633;28;20048;-73
2023/10/12 05:43:33;;;;;;;1.30;1.20;;;20.40;72.20;;;;;;5087918;28;20131;-73
2023/10/12 05:46:09;;;;;;;1.70;1.60;;;20.40;72.20;;;;;;5087259;28;20093;-73
2023/10/12 05:48:36;;;;;;;1.50;1.40;;;20.40;72.20;;;;;;5073839;28;20429;-73
2023/10/12 05:51:04;;;;;;;1.65;1.55;;;20.40;72.20;;;;;;5111805;27;20039;-73
2023/10/12 05:53:29;;;;;;;1.17;1.17;;;20.40;72.20;;;;;;5097540;28;20131;-74
2023/10/12 05:55:56;;;;;;;1.67;1.58;;;20.40;72.10;;;;;;5089249;28;20143;-73
2023/10/12 05:58:22;;;;;;;1.70;1.60;;;20.40;72.00;;;;;;5077982;28;20039;-73
2023/10/12 06:00:52;;;;;;;1.50;1.40;;;20.40;72.10;;;;;;5076894;28;20024;-73
2023/10/12 06:03:20;;;;;;;1.35;1.33;;;20.40;72.10;;;;;;5095373;28;20054;-73
2023/10/12 06:05:46;;;;;;;1.88;1.77;;;20.40;72.20;;;;;;5092853;28;20044;-73
2023/10/12 06:08:12;;;;;;;1.70;1.60;;;20.40;72.20;;;;;;5094631;28;20043;-72
2023/10/12 06:10:41;;;;;;;1.65;1.55;;;20.40;72.00;;;;;;5092334;28;20139;-73
2023/10/12 06:13:11;;;;;;;2.30;1.75;;;20.40;72.10;;;;;;5073398;28;20047;-73
2023/10/12 06:15:40;;;;;;;2.17;1.38;;;20.40;72.10;;;;;;5091211;28;20052;-73
2023/10/12 06:18:21;;;;;;;1.58;1.48;;;20.40;72.10;;;;;;5091888;28;20037;-73
2023/10/12 06:20:58;;;;;;;1.52;1.50;;;20.40;72.20;;;;;;5084901;28;20040;-73
2023/10/12 06:23:31;;;;;;;1.80;1.70;;;20.40;72.30;;;;;;5095330;28;20047;-73
2023/10/12 06:25:56;;;;;;;1.90;1.80;;;20.40;72.40;;;;;;5099251;28;20047;-73
2023/10/12 06:28:23;;;;;;;1.90;1.80;;;20.40;72.70;;;;;;5092884;28;20054;-73
2023/10/12 06:30:50;;;;;;;1.70;1.60;;;20.40;72.60;;;;;;5088674;28;20115;-73
2023/10/12 06:33:17;;;;;;;2.00;1.80;;;20.40;72.60;;;;;;5093817;28;20071;-73
2023/10/12 06:35:58;;;;;;;1.92;1.83;;;20.40;72.50;;;;;;5098721;28;20065;-73
2023/10/12 06:44:12;;;;;;;1.70;1.60;;;20.40;72.30;;;;;;5091201;28;20052;-73
2023/10/12 06:46:46;;;;;;;1.48;1.38;;;20.40;72.30;;;;;;5086705;28;20050;-73
2023/10/12 06:49:18;;;;;;;1.30;1.30;;;20.40;72.30;;;;;;5088335;28;20035;-73
2023/10/12 06:51:53;;;;;;;1.73;1.63;;;20.40;72.20;;;;;;5091148;28;20131;-73
2023/10/12 06:59:59;;;;;;;1.70;1.60;;;20.40;72.10;;;;;;5107052;27;20040;-73
2023/10/12 07:02:29;;;;;;;1.75;1.65;;;20.40;72.80;;;;;;5089939;28;20181;-73
2023/10/12 07:04:59;;;;;;;2.00;1.90;;;20.40;72.10;;;;;;5097211;28;20059;-73
2023/10/12 07:07:41;;;;;;;1.83;1.73;;;20.40;72.10;;;;;;5089937;28;20039;-73
2023/10/12 07:12:41;;;;;;;1.95;1.85;;;20.40;72.30;;;;;;5088806;28;20120;-73
2023/10/12 07:15:11;;;;;;;1.55;1.52;;;20.40;72.30;;;;;;5089751;28;20521;-73
2023/10/12 07:17:37;;;;;;;1.60;1.50;;;20.40;72.40;;;;;;5081368;28;21631;-73
2023/10/12 07:20:06;;;;;;;1.52;1.50;;;20.40;72.40;;;;;;5093849;28;20051;-73
2023/10/12 07:22:36;;;;;;;1.67;1.58;;;20.50;72.50;;;;;;5094514;28;20039;-73
2023/10/12 07:25:04;;;;;;;1.70;1.60;;;20.40;72.30;;;;;;5095556;28;20092;-73
2023/10/12 07:27:29;;;;;;;1.63;1.52;;;20.40;72.20;;;;;;5090139;28;20031;-73
2023/10/12 07:30:08;;;;;;;1.70;1.60;;;20.40;71.90;;;;;;5090108;28;20051;-73
2023/10/12 07:32:44;;;;;;;1.80;1.70;;;20.50;72.00;;;;;;5089221;28;20443;-73
2023/10/12 07:35:31;;;;;;;1.50;1.40;;;20.40;71.90;;;;;;5093429;28;20413;-73
2023/10/12 07:37:57;;;;;;;1.75;1.65;;;20.40;71.90;;;;;;5089917;28;20040;-73
2023/10/12 07:40:23;;;;;;;1.60;1.50;;;20.50;72.00;;;;;;5096332;28;20043;-73
2023/10/12 07:42:49;;;;;;;1.50;1.40;;;20.40;71.90;;;;;;5087832;28;20040;-73
2023/10/12 07:45:15;;;;;;;1.63;1.52;;;20.50;72.10;;;;;;5072851;28;20033;-73
2023/10/12 07:47:42;;;;;;;1.30;1.30;;;20.50;72.10;;;;;;5070721;28;20060;-73
2023/10/12 07:50:12;;;;;;;1.50;1.48;;;20.50;72.10;;;;;;5097837;28;20482;-73
2023/10/12 07:55:12;;;;;;;1.75;1.65;;;20.50;72.30;;;;;;5088685;28;20062;-73
2023/10/12 07:57:37;;;;;;;1.33;1.33;;;20.50;72.40;;;;;;5090728;28;20118;-73
2023/10/12 08:13:15;;;;;;;1.42;1.40;;;20.50;72.90;;;;;;5054503;28;20040;-73
2023/10/12 08:23:50;;;;;;;1.48;1.40;;;20.40;72.20;;;;;;5090170;28;20040;-73
2023/10/12 08:26:35;;;;;;;1.40;1.38;;;20.50;72.10;;;;;;5069449;28;20045;-73
2023/10/12 08:29:17;;;;;;;1.45;1.40;;;20.50;72.00;;;;;;5088275;28;20416;-73
2023/10/12 08:31:43;;;;;;;1.33;1.23;;;20.50;71.80;;;;;;5090725;28;20420;-73
2023/10/12 08:39:49;;;;;;;1.73;1.30;;;20.50;72.10;;;;;;5083173;28;20040;-73
2023/10/12 08:44:55;;;;;;;1.73;1.63;;;20.50;72.00;;;;;;5068061;28;20574;-73
2023/10/12 08:47:44;;;;;;;1.50;1.40;;;20.50;72.10;;;;;;5096737;28;20169;-73
2023/10/12 08:52:51;;;;;;;1.52;1.42;;;20.50;72.50;;;;;;5079539;28;20501;-73
2023/10/12 08:55:24;;;;;;;1.60;1.50;;;20.50;72.40;;;;;;5073477;28;20044;-73
2023/10/12 08:58:01;;;;;;;1.20;1.20;;;20.50;72.20;;;;;;5093833;28;20123;-73
2023/10/12 09:03:08;;;;;;;1.33;1.33;;;20.50;72.10;;;;;;5092283;28;20037;-73
2023/10/12 09:05:34;;;;;;;2.30;1.60;;;20.50;72.20;;;;;;5093225;28;20113;-73
2023/10/12 09:13:29;;;;;;;1.63;1.52;;;20.50;72.50;;;;;;5095833;28;20161;-73
2023/10/12 09:15:57;;;;;;;1.08;1.08;;;20.50;72.50;;;;;;5089890;28;20032;-73
2023/10/12 09:18:29;;;;;;;1.40;1.30;;;20.50;72.50;;;;;;5095038;28;20479;-73
2023/10/12 09:26:30;;;;;;;1.50;1.40;;;20.50;72.40;;;;;;5054918;28;20048;-73
2023/10/12 09:34:42;;;;;;;1.25;1.25;;;20.50;72.60;;;;;;5084356;28;20040;-73
2023/10/12 09:36:53;;;;;;;1.42;1.33;;;20.50;72.50;;;;;;5105670;27;20043;-73
2023/10/12 09:39:24;;;;;;;1.63;1.52;;;20.50;72.30;;;;;;5104158;27;20063;-73
2023/10/12 09:41:56;;;;;;;1.40;1.40;;;20.50;72.20;;;;;;5091540;28;20135;-73
2023/10/12 09:44:26;;;;;;;1.20;1.20;;;20.50;72.20;;;;;;5085113;28;20060;-73
2023/10/12 09:46:55;;;;;;;2.15;1.40;;;20.50;72.10;;;;;;5098125;28;20450;-73
2023/10/12 09:49:22;;;;;;;1.52;1.38;;;20.50;72.30;;;;;;5092080;28;20088;-73
2023/10/12 09:51:59;;;;;;;1.70;1.60;;;20.50;72.30;;;;;;5084482;28;20083;-73
2023/10/12 09:54:29;;;;;;;1.42;1.33;;;20.50;72.50;;;;;;5090906;28;20032;-73
2023/10/12 09:56:59;;;;;;;1.48;1.45;;;20.50;72.50;;;;;;5060640;28;20498;-73
2023/10/12 09:59:31;;;;;;;1.38;1.27;;;20.50;72.50;;;;;;5073943;28;20401;-73
2023/10/12 10:02:05;;;;;;;1.30;1.20;;;20.60;72.50;;;;;;5077773;28;20036;-73
2023/10/12 10:04:34;;;;;;;;;;;20.50;73.20;;;;;;5070783;28;20044;-73
2023/10/12 10:07:25;;;;;;;1.00;1.00;;;20.60;72.40;;;;;;5092473;28;19919;-73
2023/10/12 10:09:53;;;;;;;1.45;1.10;;;20.60;72.40;;;;;;5087558;28;20097;-73
2023/10/12 10:12:20;;;;;;;1.33;1.30;;;20.50;72.40;;;;;;5063218;28;20051;-73
2023/10/12 10:14:52;;;;;;;2.15;1.20;;;20.60;72.50;;;;;;5075185;28;20045;-73
2023/10/12 10:17:23;;;;;;;1.48;1.38;;;20.60;72.50;;;;;;5089307;28;20048;-73
2023/10/12 10:20:03;;;;;;;1.60;1.50;;;20.60;72.60;;;;;;5090719;28;20043;-73
2023/10/12 10:22:33;;;;;;;1.77;1.67;;;20.60;72.60;;;;;;5087304;28;20052;-73
2023/10/12 10:24:59;;;;;;;1.13;1.13;;;20.50;72.50;;;;;;5091268;28;20028;-73
2023/10/12 10:27:34;;;;;;;1.65;1.55;;;20.60;73.30;;;;;;5093696;28;20448;-73
2023/10/12 10:30:25;;;;;;;1.40;1.30;;;20.60;72.50;;;;;;5092690;28;20070;-73
2023/10/12 10:33:07;;;;;;;1.65;1.55;;;20.60;72.60;;;;;;5093686;28;20142;-73
2023/10/12 10:36:10;;;;;;;1.05;1.05;;;20.60;72.60;;;;;;5087230;28;20064;-73
2023/10/12 10:38:39;;;;;;;1.00;1.00;;;20.60;72.60;;;;;;5096639;28;20040;-73
2023/10/12 10:41:06;;;;;;;1.27;1.27;;;20.60;72.50;;;;;;5074607;28;20572;-73
2023/10/12 10:43:37;;;;;;;1.42;1.05;;;20.60;72.50;;;;;;5094419;28;20055;-73
2023/10/12 10:46:06;;;;;;;0.85;0.85;;;20.60;72.70;;;;;;5093952;28;20519;-73
2023/10/12 10:48:34;;;;;;;1.05;1.05;;;20.60;72.80;;;;;;5094055;28;20401;-73
2023/10/12 10:51:04;;;;;;;1.30;1.20;;;20.60;72.70;;;;;;5094460;28;20048;-73
2023/10/12 10:53:36;;;;;;;1.38;1.27;;;20.60;72.70;;;;;;5094501;28;20038;-73
2023/10/12 10:56:10;;;;;;;1.40;1.30;;;20.60;72.80;;;;;;5111455;27;20095;-73
2023/10/12 10:58:37;;;;;;;1.33;1.23;;;20.60;72.90;;;;;;5089674;28;20178;-73
2023/10/12 11:01:05;;;;;;;1.08;1.08;;;20.60;72.70;;;;;;5092886;28;20083;-73
2023/10/12 11:03:34;;;;;;;1.30;1.20;;;20.60;72.70;;;;;;5094628;28;20121;-73
2023/10/12 11:06:00;;;;;;;1.20;1.20;;;20.60;72.70;;;;;;5095406;28;20071;-73
2023/10/12 11:08:31;;;;;;;1.17;1.10;;;20.60;72.70;;;;;;5084596;28;20039;-73
2023/10/12 11:13:38;;;;;;;1.38;1.30;;;20.60;72.60;;;;;;5089681;28;20035;-73
2023/10/12 11:18:48;;;;;;;1.27;1.20;;;20.60;72.60;;;;;;5081285;28;20044;-75
2023/10/12 11:21:19;;;;;;;0.73;0.73;;;20.70;72.60;;;;;;5077916;28;20374;-73
2023/10/12 11:23:45;;;;;;;1.02;1.02;;;20.60;72.60;;;;;;5080972;28;20434;-73
2023/10/12 11:26:17;;;;;;;1.02;1.02;;;20.60;72.40;;;;;;5062234;28;20042;-73
2023/10/12 11:28:44;;;;;;;1.08;1.02;;;20.60;72.40;;;;;;5094298;28;20401;-73
2023/10/12 11:31:30;;;;;;;0.85;0.85;;;20.70;72.50;;;;;;5069542;28;22930;-73
2023/10/12 11:33:56;;;;;;;1.00;1.00;;;20.60;72.50;;;;;;5090016;28;20036;-73
2023/10/12 11:36:23;;;;;;;1.27;1.20;;;20.70;72.60;;;;;;5091080;28;20043;-73
2023/10/12 11:38:58;;;;;;;0.82;0.82;;;20.60;72.60;;;;;;5094960;28;20035;-73
2023/10/12 11:41:25;;;;;;;1.02;1.02;;;20.70;72.70;;;;;;5103711;27;20513;-73
2023/10/12 11:43:53;;;;;;;1.15;1.10;;;20.70;72.60;;;;;;5085825;28;20070;-73
2023/10/12 11:46:20;;;;;;;1.13;1.10;;;20.70;72.50;;;;;;5083071;28;20036;-73
2023/10/12 11:49:01;;;;;;;0.88;0.88;;;20.70;72.40;;;;;;5082563;28;20078;-73
2023/10/12 11:51:27;;;;;;;0.68;0.68;;;20.60;72.50;;;;;;5093531;28;20043;-73
2023/10/12 11:53:53;;;;;;;1.23;1.13;;;20.70;72.50;;;;;;5091141;28;20040;-73
2023/10/12 11:56:22;;;;;;;1.10;1.00;;;20.70;73.20;;;;;;5094760;28;20072;-73
2023/10/12 11:58:54;;;;;;;1.08;1.05;;;20.70;72.60;;;;;;5095260;28;20073;-73
2023/10/12 12:01:22;;;;;;;1.10;1.08;;;20.70;72.40;;;;;;5091077;28;20051;-76
2023/10/12 12:03:53;;;;;;;0.77;0.77;;;20.60;72.30;;;;;;5093289;28;20509;-76
2023/10/12 12:06:19;;;;;;;1.00;1.00;;;20.60;72.30;;;;;;5097812;28;20043;-76
2023/10/12 12:08:45;;;;;;;1.10;1.00;;;20.70;72.30;;;;;;5085197;28;20131;-76
2023/10/12 12:11:13;;;;;;;1.10;1.10;;;20.70;72.40;;;;;;5091098;28;20070;-76
2023/10/12 12:13:47;;;;;;;0.80;0.80;;;20.70;72.40;;;;;;5088501;28;20093;-76
2023/10/12 12:16:15;;;;;;;1.00;1.00;;;20.70;72.40;;;;;;5083979;28;20445;-76
2023/10/12 12:18:41;;;;;;;0.82;0.82;;;20.70;72.60;;;;;;5080929;28;20039;-76
2023/10/12 12:21:15;;;;;;;0.90;0.90;;;20.70;72.60;;;;;;5091897;28;20051;-76
2023/10/12 12:23:41;;;;;;;1.00;1.00;;;20.70;73.40;;;;;;5093342;28;20055;-76
2023/10/12 12:26:09;;;;;;;0.85;0.85;;;20.70;72.40;;;;;;5094681;28;20481;-76
2023/10/12 12:28:43;;;;;;;0.85;0.85;;;20.70;72.40;;;;;;5079292;28;20040;-76
2023/10/12 12:31:13;;;;;;;0.80;0.80;;;20.70;72.30;;;;;;5089981;28;20048;-76
2023/10/12 12:33:43;;;;;;;0.98;0.98;;;20.70;72.30;;;;;;5082666;28;20048;-76
2023/10/12 12:36:30;;;;;;;1.02;1.02;;;20.70;72.20;;;;;;5091969;28;20130;-76
2023/10/12 12:39:01;;;;;;;1.13;1.05;;;20.70;72.30;;;;;;5086870;28;20114;-76
2023/10/12 12:41:29;;;;;;;0.90;0.90;;;20.70;72.30;;;;;;5094428;28;20135;-76
2023/10/12 12:43:58;;;;;;;1.10;1.00;;;20.70;72.30;;;;;;5052530;28;20047;-76
2023/10/12 12:46:24;;;;;;;0.88;0.88;;;20.70;72.30;;;;;;5078327;28;20350;-76
2023/10/12 12:48:50;;;;;;;0.77;0.77;;;20.70;72.30;;;;;;5096042;28;20071;-76
2023/10/12 12:51:17;;;;;;;0.73;0.73;;;20.70;72.20;;;;;;5100209;28;20075;-77
2023/10/12 12:53:46;;;;;;;1.17;1.17;;;20.70;72.10;;;;;;5093675;28;20051;-76
2023/10/12 12:56:14;;;;;;;1.00;1.00;;;20.70;72.20;;;;;;5094554;28;20075;-76
2023/10/12 12:58:46;;;;;;;0.90;0.90;;;20.70;72.20;;;;;;5079426;28;20048;-76
2023/10/12 13:01:16;;;;;;;0.90;0.90;;;20.70;72.10;;;;;;5090410;28;20547;-77
2023/10/12 13:03:42;;;;;;;0.93;0.93;;;20.80;72.20;;;;;;5094824;28;20048;-76
2023/10/12 13:06:08;;;;;;;0.73;0.73;;;20.70;72.10;;;;;;5081583;28;20051;-76
2023/10/12 13:08:35;;;;;;;1.00;1.00;;;20.70;72.10;;;;;;5095475;28;20078;-77
2023/10/12 13:11:01;;;;;;;0.85;0.82;;;20.70;72.10;;;;;;5091593;28;20037;-76
2023/10/12 13:13:27;;;;;;;1.05;1.05;;;20.70;72.00;;;;;;5093205;28;20057;-76
2023/10/12 13:15:52;;;;;;;0.88;0.88;;;20.70;72.00;;;;;;5069404;28;20444;-76
2023/10/12 13:18:19;;;;;;;1.23;0.90;;;20.70;72.10;;;;;;5077210;28;20051;-76
2023/10/12 13:20:48;;;;;;;1.13;1.02;;;20.70;72.10;;;;;;5096893;28;20186;-76
2023/10/12 13:23:18;;;;;;;0.77;0.60;;;20.70;72.10;;;;;;5091498;28;20416;-76
2023/10/12 13:25:44;;;;;;;0.90;0.90;;;20.70;72.00;;;;;;5092572;28;20118;-77
2023/10/12 13:28:10;;;;;;;0.82;0.82;;;20.70;72.10;;;;;;5088769;28;20446;-77
2023/10/12 13:30:37;;;;;;;0.98;0.77;;;20.70;72.30;;;;;;5068729;28;20042;-76
2023/10/12 13:33:05;;;;;;;0.80;0.80;;;20.70;72.50;;;;;;5092935;28;20043;-76
2023/10/12 13:38:09;;;;;;;0.63;0.63;;;20.70;72.00;;;;;;5093809;28;20040;-76
2023/10/12 13:40:38;;;;;;;1.10;1.00;;;20.70;72.10;;;;;;5094671;28;20523;-76
2023/10/12 13:43:14;;;;;;;0.70;0.70;;;20.70;72.30;;;;;;5079139;28;20052;-76
2023/10/12 13:45:47;;;;;;;0.98;0.90;;;20.70;72.30;;;;;;5094948;28;20054;-76
2023/10/12 13:48:25;;;;;;;0.95;0.95;;;20.70;72.30;;;;;;5084604;28;20410;-76
2023/10/12 13:50:59;;;;;;;1.02;1.02;;;20.80;72.50;;;;;;5081268;28;20036;-76
2023/10/12 13:53:28;;;;;;;1.13;0.70;;;20.80;72.40;;;;;;5099313;28;20517;-76
2023/10/12 13:55:54;;;;;;;0.95;0.95;;;20.80;72.50;;;;;;5100189;28;20024;-76
2023/10/12 13:58:26;;;;;;;0.80;0.80;;;20.70;72.20;;;;;;5089252;28;20039;-76
2023/10/12 14:00:53;;;;;;;0.57;0.57;;;20.70;72.20;;;;;;5081306;28;20085;-76
2023/10/12 14:03:27;;;;;;;0.70;0.70;;;20.70;72.20;;;;;;5096111;28;20480;-76
2023/10/12 14:05:54;;;;;;;0.52;0.52;;;20.80;72.10;;;;;;5099935;28;20106;-76
2023/10/12 14:08:20;;;;;;;0.68;0.68;;;20.80;72.00;;;;;;5097417;28;20043;-76
2023/10/12 14:10:45;;;;;;;0.70;0.70;;;20.80;72.00;;;;;;5093314;28;20036;-77
2023/10/12 14:13:13;;;;;;;0.80;0.80;;;20.80;71.90;;;;;;5097258;28;20496;-76
2023/10/12 14:15:43;;;;;;;0.77;0.60;;;20.80;72.00;;;;;;5081564;28;20023;-77
2023/10/12 14:18:11;;;;;;;0.85;0.85;;;20.80;72.00;;;;;;5090144;28;20402;-76
2023/10/12 14:20:38;;;;;;;0.60;0.60;;;20.80;71.90;;;;;;5101979;28;20544;-76
2023/10/12 14:23:06;;;;;;;0.70;0.70;;;20.80;72.10;;;;;;5090273;28;20087;-76
2023/10/12 14:25:47;;;;;;;0.90;0.70;;;20.80;72.10;;;;;;5095150;28;20051;-76
2023/10/12 14:28:16;;;;;;;0.65;0.65;;;20.70;72.10;;;;;;5091339;28;20067;-76
2023/10/12 14:30:42;;;;;;;1.98;0.80;;;20.70;72.30;;;;;;5090666;28;20035;-76
2023/10/12 14:33:08;;;;;;;0.63;0.63;;;20.80;72.50;;;;;;5086603;28;20122;-77
2023/10/12 14:35:35;;;;;;;0.80;0.80;;;20.80;72.40;;;;;;5097619;28;20064;-76
2023/10/12 14:38:02;;;;;;;0.85;0.85;;;20.80;72.20;;;;;;5116215;27;20063;-76
2023/10/12 14:40:30;;;;;;;0.50;0.50;;;20.80;72.40;;;;;;5109179;27;20112;-76
2023/10/12 14:42:57;;;;;;;0.90;0.90;;;20.80;72.30;;;;;;5079289;28;20063;-76
2023/10/12 14:45:24;;;;;;;0.80;0.80;;;20.80;72.20;;;;;;5096994;28;20040;-77
2023/10/12 14:47:51;;;;;;;0.60;0.60;;;20.80;72.20;;;;;;5095887;28;20036;-77
2023/10/12 14:50:17;;;;;;;0.80;0.80;;;20.80;72.50;;;;;;5098733;28;20581;-76
2023/10/12 14:52:43;;;;;;;0.63;0.63;;;20.80;72.20;;;;;;5087938;28;20074;-76